Latest Coastal Weather Observations for Aireys Inlet

IDV60701

Issued at 3:51 am EST Thursday 23 May 2024 (issued every 10 minutes, with the page automatically refreshed every 10 minutes)

About coastal observations | Map of coastal stations | Coastal observations for VIC | Marine services | Other Formats
Station Details ID: 090180 Name: AIREYS INLET Lat: -38.46 Lon: 144.09 Height: 105.0 m
Data from the previous 72 hours. | See also: Recent months at Aireys Inlet
Date/Time
EST
Wind Sea
Height
m
Swell Vis
km
Cloud Weather Temp
°C
Press
MSL
hPa
Rain since
9am
mm
Dir  Spd
kts
Gust
kts
Height
m
Period
s
Dir
23/03:30am NNW 6 7 - - - - - - - 9.9 - 0.2
23/03:00am NW 6 8 - - - - - - - 10.7 - 0.2
23/02:30am NW 4 6 - - - - - - - 11.0 - 0.2
23/02:00am NW 4 5 - - - - - - - 11.3 - 0.2
23/01:30am NW 4 5 - - - - - - - 11.3 - 0.2
23/01:00am NNW 3 4 - - - - - - - 10.9 - 0.2
23/12:30am NNW 3 4 - - - - - - - 10.9 - 0.2
23/12:00am W 2 4 - - - - - - - 11.7 - 0.2
 
Date/Time
EST
Wind Sea
Height
m
Swell Vis
km
Cloud Weather Temp
°C
Press
MSL
hPa
Rain since
9am
mm
Dir  Spd
kts
Gust
kts
Height
m
Period
s
Dir
22/11:30pm W 4 4 - - - - - - - 11.4 - 0.2
22/11:00pm W 4 5 - - - - - - - 11.4 - 0.2
22/10:30pm W 4 6 - - - - - - - 11.7 - 0.2
22/10:00pm WSW 4 5 - - - - - - - 11.6 - 0.2
22/09:30pm W 4 5 - - - - - - - 11.9 - 0.2
22/09:00pm SSW 6 11 - - - - - - - 12.1 - 0.2
22/08:30pm SSW 9 13 - - - - - - - 12.2 - 0.2
22/08:00pm SSW 7 11 - - - - - - - 12.4 - 0.2
22/07:30pm SW 5 7 - - - - - - - 12.2 - 0.2
22/07:00pm WSW 6 9 - - - - - - - 12.4 - 0.2
22/06:30pm SSW 9 12 - - - - - - - 12.4 - 0.2
22/06:00pm SSW 7 11 - - - - - - - 12.8 - 0.2
22/05:30pm SSW 4 6 - - - - - - - 12.6 - 0.2
22/05:00pm W 5 7 - - - - - - - 12.7 - 0.2
22/04:30pm W 6 9 - - - - - - - 12.9 - 0.2
22/04:00pm WNW 4 5 - - - - - - - 12.9 - 0.2
22/03:30pm W 4 5 - - - - - - - 12.8 - 0.2
22/03:00pm W 3 5 - - - - - - - 13.8 - 0.0
22/02:30pm SSW 7 14 - - - - - - - 14.1 - 0.0
22/02:00pm SW 5 8 - - - - - - - 14.5 - 0.0
22/01:30pm SW 5 9 - - - - - - - 14.7 - 0.0
22/01:00pm SSW 5 8 - - - - - - - 14.6 - 0.0
22/12:30pm W 4 7 - - - - - - - 14.5 - 0.0
22/12:00pm WSW 4 6 - - - - - - - 14.5 - 0.0
22/11:30am SW 4 7 - - - - - - - 14.2 - 0.0
22/11:00am W 3 5 - - - - - - - 13.8 - 0.0
22/10:30am W 4 7 - - - - - - - 13.0 - 0.0
22/10:00am W 4 5 - - - - - - - 12.7 - 0.0
22/09:30am W 5 8 - - - - - - - 12.4 - 0.0
22/09:00am WNW 4 5 - - - - - - - 11.8 - 0.2
22/08:30am W 4 6 - - - - - - - 11.5 - 0.2
22/08:00am W 3 5 - - - - - - - 11.4 - 0.2
22/07:30am SE 1 2 - - - - - - - 11.5 - 0.2
22/07:00am W 2 5 - - - - - - - 11.8 - 0.0
22/06:30am W 3 5 - - - - - - - 11.9 - 0.0
22/06:00am WSW 8 10 - - - - - - - 11.9 - 0.0
22/05:30am WSW 5 7 - - - - - - - 11.9 - 0.0
22/05:00am W 5 7 - - - - - - - 11.9 - 0.0
22/04:30am WSW 5 7 - - - - - - - 11.6 - 0.0
22/04:00am W 5 6 - - - - - - - 11.4 - 0.0
22/03:30am WSW 5 7 - - - - - - - 11.2 - 0.0
22/03:00am WSW 6 8 - - - - - - - 11.0 - 0.0
22/02:30am WSW 6 8 - - - - - - - 11.3 - 0.0
22/02:00am WSW 5 8 - - - - - - - 11.7 - 0.0
22/01:30am SSE 7 10 - - - - - - - 12.1 - 0.0
22/01:00am SSE 6 11 - - - - - - - 12.1 - 0.0
22/12:30am S 7 10 - - - - - - - 12.1 - 0.0
22/12:00am S 8 13 - - - - - - - 12.2 - 0.0
 
Date/Time
EST
Wind Sea
Height
m
Swell Vis
km
Cloud Weather Temp
°C
Press
MSL
hPa
Rain since
9am
mm
Dir  Spd
kts
Gust
kts
Height
m
Period
s
Dir
21/11:30pm S 8 14 - - - - - - - 12.3 - 0.0
21/11:00pm S 10 16 - - - - - - - 12.3 - 0.0
21/10:30pm S 8 13 - - - - - - - 12.4 - 0.0
21/10:00pm S 6 11 - - - - - - - 12.7 - 0.0
21/09:30pm S 4 7 - - - - - - - 12.1 - 0.0
21/09:00pm SSE 7 11 - - - - - - - 12.1 - 0.0
21/08:30pm SSE 7 10 - - - - - - - 12.4 - 0.0
21/08:00pm SSE 7 10 - - - - - - - 12.2 - 0.0
21/07:30pm S 9 14 - - - - - - - 12.2 - 0.0
21/07:00pm SSW 5 9 - - - - - - - 12.1 - 0.0
21/06:30pm S 7 11 - - - - - - - 12.4 - 0.0
21/06:00pm SSE 7 12 - - - - - - - 12.3 - 0.0
21/05:30pm SSE 9 14 - - - - - - - 12.1 - 0.0
21/05:00pm S 9 15 - - - - - - - 12.5 - 0.0
21/04:30pm SSW 12 18 - - - - - - - 12.3 - 0.0
21/04:00pm SSW 9 15 - - - - - - - 12.5 - 0.0
21/03:30pm SSW 9 13 - - - - - - - 12.7 - 0.0
21/03:00pm SSW 10 16 - - - - - - - 12.9 - 0.0
21/02:30pm SSW 11 16 - - - - - - - 12.8 - 0.0
21/02:00pm SSW 10 17 - - - - - - - 13.3 - 0.0
21/01:30pm SSW 10 18 - - - - - - - 13.7 - 0.0
21/01:00pm S 10 15 - - - - - - - 13.4 - 0.0
21/12:30pm SSW 11 16 - - - - - - - 12.8 - 0.0
21/12:00pm SSW 10 17 - - - - - - - 12.9 - 0.0
21/11:30am SSW 9 13 - - - - - - - 13.0 - 0.0
21/11:00am SSW 9 15 - - - - - - - 12.4 - 0.0
21/10:30am S 8 13 - - - - - - - 12.3 - 0.0
21/10:00am S 9 14 - - - - - - - 12.0 - 0.0
21/09:30am S 9 15 - - - - - - - 11.8 - 0.0
21/09:00am S 9 15 - - - - - - - 11.6 - 1.2
21/08:30am S 8 12 - - - - - - - 11.3 - 1.2
21/08:00am S 8 13 - - - - - - - 11.1 - 1.2
21/07:30am SSE 6 12 - - - - - - - 10.9 - 1.2
21/07:00am SSE 7 10 - - - - - - - 10.9 - 1.2
21/06:30am SSE 8 13 - - - - - - - 10.9 - 1.2
21/06:00am S 9 13 - - - - - - - 10.9 - 1.2
21/05:30am SSE 7 13 - - - - - - - 11.1 - 1.2
21/05:00am S 10 16 - - - - - - - 11.0 - 1.2
21/04:30am S 5 10 - - - - - - - 10.5 - 1.2
21/04:00am S 7 13 - - - - - - - 10.6 - 1.2
21/03:30am SSE 7 15 - - - - - - - 10.8 - 1.2
21/03:00am SSE 7 13 - - - - - - - 10.5 - 1.2
21/02:30am SSE 9 13 - - - - - - - 10.7 - 1.2
21/02:00am SSE 7 11 - - - - - - - 10.7 - 1.2
21/01:30am SSE 9 13 - - - - - - - 10.7 - 1.2
21/01:00am SSE 10 16 - - - - - - - 10.8 - 1.2
21/12:30am SSE 9 15 - - - - - - - 10.8 - 1.2
21/12:00am S 9 17 - - - - - - - 10.5 - 1.2
 
Date/Time
EST
Wind Sea
Height
m
Swell Vis
km
Cloud Weather Temp
°C
Press
MSL
hPa
Rain since
9am
mm
Dir  Spd
kts
Gust
kts
Height
m
Period
s
Dir
20/11:30pm S 9 13 - - - - - - - 10.3 - 1.2
20/11:00pm S 7 14 - - - - - - - 10.1 - 1.2
20/10:30pm WSW 7 11 - - - - - - - 10.2 - 0.8
20/10:00pm SSW 9 14 - - - - - - - 10.7 - 0.8
20/09:30pm S 7 11 - - - - - - - 10.7 - 0.6
20/09:00pm S 6 10 - - - - - - Recent precip. 10.9 - 0.2
20/08:30pm SW 4 13 - - - - - - - 10.6 - 0.2
20/08:00pm W 4 6 - - - - - - - 10.4 - 0.0
20/07:30pm WSW 7 10 - - - - - - - 10.7 - 0.0
20/07:00pm WSW 7 10 - - - - - - - 10.4 - 0.0
20/06:30pm WSW 6 9 - - - - - - - 10.6 - 0.0
20/06:00pm WSW 6 8 - - - - - - - 10.4 - 0.0
20/05:30pm WSW 7 12 - - - - - - - 11.1 - 0.0
20/05:00pm S 6 10 - - - - - - - 11.7 - 0.0
20/04:30pm SW 6 13 - - - - - - - 12.5 - 0.0
20/04:00pm SW 9 14 - - - - - - - 11.7 - 0.0
20/03:30pm SSW 11 17 - - - - - - - 11.6 - 0.0
20/03:00pm SW 7 13 - - - - - - - 13.2 - 0.0
20/02:30pm SSW 11 17 - - - - - - - 12.3 - 0.0
20/02:00pm S 9 15 - - - - - - - 13.4 - 0.0
20/01:30pm S 10 15 - - - - - - - 13.4 - 0.0
20/01:00pm S 8 13 - - - - - - - 13.8 - 0.0
20/12:30pm S 9 14 - - - - - - - 13.6 - 0.0
20/12:00pm S 8 14 - - - - - - - 13.4 - 0.0
20/11:30am S 9 15 - - - - - - - 13.2 - 0.0
20/11:00am S 9 14 - - - - - - - 13.1 - 0.0
20/10:30am SSE 10 16 - - - - - - - 12.9 - 0.0
20/10:00am S 11 16 - - - - - - - 12.7 - 0.0
20/09:30am S 9 14 - - - - - - - 12.3 - 0.0
20/09:00am SSW 11 19 - - - - - - - 12.0 - 2.6
20/08:30am S 8 15 - - - - - - - 12.3 - 2.6
20/08:00am S 10 16 - - - - - - - 11.8 - 2.6
20/07:30am SW 7 11 - - - - - - - 11.2 - 2.6
20/07:00am SW 6 9 - - - - - - - 11.2 - 2.6
20/06:30am S 11 16 - - - - - - - 11.5 - 2.6
20/06:00am S 9 15 - - - - - - - 11.3 - 2.6
20/05:30am SSW 8 15 - - - - - - - 11.3 - 2.6
20/05:00am S 12 20 - - - - - - - 11.3 - 2.6
20/04:30am S 11 18 - - - - - - - 11.2 - 2.6
20/04:00am SSW 10 18 - - - - - - - 10.9 - 2.6

Other formats

Comma delimited format used in spreadsheet applications
http://www.bom.gov.au/fwo/IDV60701/IDV60701.94846.axf

JavaScript Object Notation format (JSON) in row-major order
http://www.bom.gov.au/fwo/IDV60701/IDV60701.94846.json

Data quality

Most of these data are generated automatically and are frequently updated. Quality checks on data are not normally performed. It is possible for incorrect values to appear. Refer to information at About Latest Weather Observations and please check the disclaimer before using these data.